sensor_id;sensor_type;location;lat;lon;timestamp;P1;durP1;ratioP1;P2;durP2;ratioP2
27899;SDS011;15243;50.726;7.080;2023-09-07T00:00:17;10.80;;;7.80;;
27899;SDS011;15243;50.726;7.080;2023-09-07T00:02:44;10.27;;;7.78;;
27899;SDS011;15243;50.726;7.080;2023-09-07T00:05:11;9.35;;;7.85;;
27899;SDS011;15243;50.726;7.080;2023-09-07T00:07:39;12.90;;;8.02;;
27899;SDS011;15243;50.726;7.080;2023-09-07T00:10:06;10.80;;;7.53;;
27899;SDS011;15243;50.726;7.080;2023-09-07T00:12:34;10.07;;;7.82;;
27899;SDS011;15243;50.726;7.080;2023-09-07T00:15:01;9.13;;;7.15;;
27899;SDS011;15243;50.726;7.080;2023-09-07T00:17:29;13.07;;;8.30;;
27899;SDS011;15243;50.726;7.080;2023-09-07T00:19:56;10.15;;;7.78;;
27899;SDS011;15243;50.726;7.080;2023-09-07T00:22:24;12.27;;;8.90;;
27899;SDS011;15243;50.726;7.080;2023-09-07T00:24:55;12.75;;;8.00;;
27899;SDS011;15243;50.726;7.080;2023-09-07T00:27:22;10.05;;;8.30;;
27899;SDS011;15243;50.726;7.080;2023-09-07T00:29:48;10.88;;;8.20;;
27899;SDS011;15243;50.726;7.080;2023-09-07T00:32:15;13.75;;;8.45;;
27899;SDS011;15243;50.726;7.080;2023-09-07T00:34:42;10.57;;;8.07;;
27899;SDS011;15243;50.726;7.080;2023-09-07T00:37:09;13.93;;;8.00;;
27899;SDS011;15243;50.726;7.080;2023-09-07T00:39:37;12.73;;;8.50;;
27899;SDS011;15243;50.726;7.080;2023-09-07T00:42:04;14.70;;;9.00;;
27899;SDS011;15243;50.726;7.080;2023-09-07T00:44:31;16.60;;;8.25;;
27899;SDS011;15243;50.726;7.080;2023-09-07T00:46:58;13.73;;;8.88;;
27899;SDS011;15243;50.726;7.080;2023-09-07T00:49:25;10.90;;;8.75;;
27899;SDS011;15243;50.726;7.080;2023-09-07T00:51:52;14.10;;;8.40;;
27899;SDS011;15243;50.726;7.080;2023-09-07T00:54:19;12.15;;;8.88;;
27899;SDS011;15243;50.726;7.080;2023-09-07T00:56:46;10.10;;;8.27;;
27899;SDS011;15243;50.726;7.080;2023-09-07T00:59:13;12.40;;;8.68;;
27899;SDS011;15243;50.726;7.080;2023-09-07T01:01:40;11.23;;;8.32;;
27899;SDS011;15243;50.726;7.080;2023-09-07T01:04:09;13.43;;;9.00;;
27899;SDS011;15243;50.726;7.080;2023-09-07T01:06:43;10.95;;;8.95;;
27899;SDS011;15243;50.726;7.080;2023-09-07T01:09:20;11.60;;;9.00;;
27899;SDS011;15243;50.726;7.080;2023-09-07T01:11:50;14.07;;;9.27;;
27899;SDS011;15243;50.726;7.080;2023-09-07T01:14:18;15.13;;;8.90;;
27899;SDS011;15243;50.726;7.080;2023-09-07T01:16:45;9.90;;;8.77;;
27899;SDS011;15243;50.726;7.080;2023-09-07T01:19:12;12.57;;;9.35;;
27899;SDS011;15243;50.726;7.080;2023-09-07T01:21:40;10.57;;;8.60;;
27899;SDS011;15243;50.726;7.080;2023-09-07T01:24:10;12.02;;;8.20;;
27899;SDS011;15243;50.726;7.080;2023-09-07T01:26:38;12.85;;;8.40;;
27899;SDS011;15243;50.726;7.080;2023-09-07T01:29:05;10.27;;;8.75;;
27899;SDS011;15243;50.726;7.080;2023-09-07T01:31:37;14.05;;;8.30;;
27899;SDS011;15243;50.726;7.080;2023-09-07T01:34:05;13.05;;;9.60;;
27899;SDS011;15243;50.726;7.080;2023-09-07T01:36:32;10.65;;;8.73;;
27899;SDS011;15243;50.726;7.080;2023-09-07T01:39:00;13.35;;;9.05;;
27899;SDS011;15243;50.726;7.080;2023-09-07T01:41:28;11.23;;;8.50;;
27899;SDS011;15243;50.726;7.080;2023-09-07T01:43:55;13.48;;;9.82;;
27899;SDS011;15243;50.726;7.080;2023-09-07T01:46:23;15.00;;;9.15;;
27899;SDS011;15243;50.726;7.080;2023-09-07T01:48:51;13.00;;;8.63;;
27899;SDS011;15243;50.726;7.080;2023-09-07T01:51:18;14.55;;;9.13;;
27899;SDS011;15243;50.726;7.080;2023-09-07T01:53:47;15.30;;;9.65;;
27899;SDS011;15243;50.726;7.080;2023-09-07T01:56:18;11.65;;;8.90;;
27899;SDS011;15243;50.726;7.080;2023-09-07T01:58:45;13.77;;;9.73;;
27899;SDS011;15243;50.726;7.080;2023-09-07T02:01:26;12.80;;;9.48;;
27899;SDS011;15243;50.726;7.080;2023-09-07T02:03:57;13.80;;;9.50;;
27899;SDS011;15243;50.726;7.080;2023-09-07T02:06:24;13.05;;;8.75;;
27899;SDS011;15243;50.726;7.080;2023-09-07T02:08:51;13.50;;;9.25;;
27899;SDS011;15243;50.726;7.080;2023-09-07T02:11:18;12.65;;;9.48;;
27899;SDS011;15243;50.726;7.080;2023-09-07T02:13:46;13.95;;;10.13;;
27899;SDS011;15243;50.726;7.080;2023-09-07T02:16:14;14.02;;;9.68;;
27899;SDS011;15243;50.726;7.080;2023-09-07T02:18:42;13.50;;;10.00;;
27899;SDS011;15243;50.726;7.080;2023-09-07T02:21:12;13.25;;;9.40;;
27899;SDS011;15243;50.726;7.080;2023-09-07T02:23:39;13.90;;;10.20;;
27899;SDS011;15243;50.726;7.080;2023-09-07T02:26:07;14.68;;;9.98;;
27899;SDS011;15243;50.726;7.080;2023-09-07T02:28:34;13.52;;;9.38;;
27899;SDS011;15243;50.726;7.080;2023-09-07T02:31:04;13.77;;;9.70;;
27899;SDS011;15243;50.726;7.080;2023-09-07T02:33:32;13.52;;;9.32;;
27899;SDS011;15243;50.726;7.080;2023-09-07T02:36:00;12.73;;;9.00;;
27899;SDS011;15243;50.726;7.080;2023-09-07T02:38:27;13.05;;;9.88;;
27899;SDS011;15243;50.726;7.080;2023-09-07T02:40:55;12.38;;;9.38;;
27899;SDS011;15243;50.726;7.080;2023-09-07T02:43:23;12.48;;;9.25;;
27899;SDS011;15243;50.726;7.080;2023-09-07T02:45:50;11.45;;;9.25;;
27899;SDS011;15243;50.726;7.080;2023-09-07T02:48:17;17.33;;;9.77;;
27899;SDS011;15243;50.726;7.080;2023-09-07T02:50:44;12.43;;;10.00;;
27899;SDS011;15243;50.726;7.080;2023-09-07T02:53:15;13.98;;;9.50;;
27899;SDS011;15243;50.726;7.080;2023-09-07T02:55:42;13.90;;;9.77;;
27899;SDS011;15243;50.726;7.080;2023-09-07T02:58:10;12.25;;;9.32;;
27899;SDS011;15243;50.726;7.080;2023-09-07T03:00:43;11.48;;;9.70;;
27899;SDS011;15243;50.726;7.080;2023-09-07T03:03:13;14.48;;;10.50;;
27899;SDS011;15243;50.726;7.080;2023-09-07T03:05:41;15.48;;;11.02;;
27899;SDS011;15243;50.726;7.080;2023-09-07T03:08:09;12.60;;;10.32;;
27899;SDS011;15243;50.726;7.080;2023-09-07T03:10:37;13.88;;;10.18;;
27899;SDS011;15243;50.726;7.080;2023-09-07T03:13:08;14.52;;;10.20;;
27899;SDS011;15243;50.726;7.080;2023-09-07T03:15:35;13.07;;;10.10;;
27899;SDS011;15243;50.726;7.080;2023-09-07T03:18:02;14.85;;;11.13;;
27899;SDS011;15243;50.726;7.080;2023-09-07T03:20:32;16.38;;;10.68;;
27899;SDS011;15243;50.726;7.080;2023-09-07T03:23:00;11.50;;;9.88;;
27899;SDS011;15243;50.726;7.080;2023-09-07T03:25:28;15.00;;;10.43;;
27899;SDS011;15243;50.726;7.080;2023-09-07T03:27:55;16.77;;;10.68;;
27899;SDS011;15243;50.726;7.080;2023-09-07T03:30:22;12.32;;;9.93;;
27899;SDS011;15243;50.726;7.080;2023-09-07T03:32:49;13.07;;;10.20;;
27899;SDS011;15243;50.726;7.080;2023-09-07T03:35:18;15.13;;;10.40;;
27899;SDS011;15243;50.726;7.080;2023-09-07T03:37:45;13.75;;;9.75;;
27899;SDS011;15243;50.726;7.080;2023-09-07T03:40:12;15.95;;;10.75;;
27899;SDS011;15243;50.726;7.080;2023-09-07T03:42:39;15.38;;;11.23;;
27899;SDS011;15243;50.726;7.080;2023-09-07T03:45:06;13.88;;;11.20;;
27899;SDS011;15243;50.726;7.080;2023-09-07T03:47:33;13.30;;;9.75;;
27899;SDS011;15243;50.726;7.080;2023-09-07T03:50:00;14.15;;;10.32;;
27899;SDS011;15243;50.726;7.080;2023-09-07T03:52:28;12.32;;;10.75;;
27899;SDS011;15243;50.726;7.080;2023-09-07T03:54:55;14.43;;;10.20;;
27899;SDS011;15243;50.726;7.080;2023-09-07T03:57:23;13.38;;;10.95;;
27899;SDS011;15243;50.726;7.080;2023-09-07T03:59:51;15.95;;;11.50;;
27899;SDS011;15243;50.726;7.080;2023-09-07T04:02:18;14.23;;;11.38;;
27899;SDS011;15243;50.726;7.080;2023-09-07T04:04:49;17.08;;;10.82;;
27899;SDS011;15243;50.726;7.080;2023-09-07T04:07:17;16.67;;;11.70;;
27899;SDS011;15243;50.726;7.080;2023-09-07T04:09:44;15.20;;;11.35;;
27899;SDS011;15243;50.726;7.080;2023-09-07T04:12:12;15.18;;;11.45;;
27899;SDS011;15243;50.726;7.080;2023-09-07T04:14:39;17.75;;;12.52;;
27899;SDS011;15243;50.726;7.080;2023-09-07T04:17:08;16.90;;;11.75;;
27899;SDS011;15243;50.726;7.080;2023-09-07T04:19:37;15.20;;;11.88;;
27899;SDS011;15243;50.726;7.080;2023-09-07T04:22:04;17.70;;;12.95;;
27899;SDS011;15243;50.726;7.080;2023-09-07T04:24:32;19.98;;;12.52;;
27899;SDS011;15243;50.726;7.080;2023-09-07T04:26:59;16.55;;;11.02;;
27899;SDS011;15243;50.726;7.080;2023-09-07T04:29:28;20.23;;;12.35;;
27899;SDS011;15243;50.726;7.080;2023-09-07T04:31:55;16.80;;;10.55;;
27899;SDS011;15243;50.726;7.080;2023-09-07T04:34:22;16.02;;;11.07;;
27899;SDS011;15243;50.726;7.080;2023-09-07T04:36:50;13.52;;;10.38;;
27899;SDS011;15243;50.726;7.080;2023-09-07T04:39:17;18.20;;;11.10;;
27899;SDS011;15243;50.726;7.080;2023-09-07T04:41:44;14.55;;;10.15;;
27899;SDS011;15243;50.726;7.080;2023-09-07T04:44:12;12.20;;;9.63;;
27899;SDS011;15243;50.726;7.080;2023-09-07T04:46:41;13.82;;;10.68;;
27899;SDS011;15243;50.726;7.080;2023-09-07T04:49:08;13.38;;;10.55;;
27899;SDS011;15243;50.726;7.080;2023-09-07T04:51:35;12.38;;;9.30;;
27899;SDS011;15243;50.726;7.080;2023-09-07T04:54:02;16.35;;;11.00;;
27899;SDS011;15243;50.726;7.080;2023-09-07T04:56:29;13.05;;;10.52;;
27899;SDS011;15243;50.726;7.080;2023-09-07T04:58:57;13.20;;;10.18;;
27899;SDS011;15243;50.726;7.080;2023-09-07T05:01:24;14.35;;;10.10;;
27899;SDS011;15243;50.726;7.080;2023-09-07T05:03:51;15.63;;;11.40;;
27899;SDS011;15243;50.726;7.080;2023-09-07T05:06:20;14.60;;;11.35;;
27899;SDS011;15243;50.726;7.080;2023-09-07T05:08:49;15.63;;;11.38;;
27899;SDS011;15243;50.726;7.080;2023-09-07T05:11:16;18.70;;;11.40;;
27899;SDS011;15243;50.726;7.080;2023-09-07T05:13:44;21.48;;;11.85;;
27899;SDS011;15243;50.726;7.080;2023-09-07T05:16:10;15.98;;;11.88;;
27899;SDS011;15243;50.726;7.080;2023-09-07T05:18:38;18.40;;;11.55;;
27899;SDS011;15243;50.726;7.080;2023-09-07T05:21:13;16.70;;;11.23;;
27899;SDS011;15243;50.726;7.080;2023-09-07T05:23:41;19.30;;;11.20;;
27899;SDS011;15243;50.726;7.080;2023-09-07T05:26:08;14.60;;;11.57;;
27899;SDS011;15243;50.726;7.080;2023-09-07T05:28:36;15.65;;;11.45;;
27899;SDS011;15243;50.726;7.080;2023-09-07T05:31:03;18.58;;;11.77;;
27899;SDS011;15243;50.726;7.080;2023-09-07T05:33:30;15.57;;;11.40;;
27899;SDS011;15243;50.726;7.080;2023-09-07T05:35:57;18.50;;;12.20;;
27899;SDS011;15243;50.726;7.080;2023-09-07T05:38:24;16.75;;;11.73;;
27899;SDS011;15243;50.726;7.080;2023-09-07T05:40:52;16.13;;;11.60;;
27899;SDS011;15243;50.726;7.080;2023-09-07T05:43:20;16.83;;;13.30;;
27899;SDS011;15243;50.726;7.080;2023-09-07T05:45:48;14.75;;;12.02;;
27899;SDS011;15243;50.726;7.080;2023-09-07T05:48:14;17.55;;;13.00;;
27899;SDS011;15243;50.726;7.080;2023-09-07T05:50:44;16.42;;;12.68;;
27899;SDS011;15243;50.726;7.080;2023-09-07T05:53:12;17.70;;;12.40;;
27899;SDS011;15243;50.726;7.080;2023-09-07T05:55:38;18.65;;;12.95;;
27899;SDS011;15243;50.726;7.080;2023-09-07T05:58:06;17.60;;;11.73;;
27899;SDS011;15243;50.726;7.080;2023-09-07T06:00:35;17.83;;;12.48;;
27899;SDS011;15243;50.726;7.080;2023-09-07T06:03:02;15.32;;;11.48;;
27899;SDS011;15243;50.726;7.080;2023-09-07T06:05:30;14.55;;;11.85;;
27899;SDS011;15243;50.726;7.080;2023-09-07T06:07:57;13.68;;;11.32;;
27899;SDS011;15243;50.726;7.080;2023-09-07T06:10:24;16.33;;;12.02;;
27899;SDS011;15243;50.726;7.080;2023-09-07T06:12:51;19.48;;;11.85;;
27899;SDS011;15243;50.726;7.080;2023-09-07T06:15:18;16.27;;;11.30;;
27899;SDS011;15243;50.726;7.080;2023-09-07T06:17:45;15.90;;;10.95;;
27899;SDS011;15243;50.726;7.080;2023-09-07T06:20:12;15.57;;;10.60;;
27899;SDS011;15243;50.726;7.080;2023-09-07T06:22:39;22.17;;;10.63;;
27899;SDS011;15243;50.726;7.080;2023-09-07T06:25:07;12.90;;;9.90;;
27899;SDS011;15243;50.726;7.080;2023-09-07T06:27:34;14.98;;;9.90;;
27899;SDS011;15243;50.726;7.080;2023-09-07T06:30:01;15.18;;;9.40;;
27899;SDS011;15243;50.726;7.080;2023-09-07T06:32:29;16.65;;;9.68;;
27899;SDS011;15243;50.726;7.080;2023-09-07T06:34:56;14.27;;;9.75;;
27899;SDS011;15243;50.726;7.080;2023-09-07T06:37:23;12.95;;;8.93;;
27899;SDS011;15243;50.726;7.080;2023-09-07T06:39:51;14.88;;;9.82;;
27899;SDS011;15243;50.726;7.080;2023-09-07T06:42:18;10.13;;;8.02;;
27899;SDS011;15243;50.726;7.080;2023-09-07T06:44:45;13.00;;;8.75;;
27899;SDS011;15243;50.726;7.080;2023-09-07T06:47:12;11.57;;;8.63;;
27899;SDS011;15243;50.726;7.080;2023-09-07T06:49:39;15.50;;;8.93;;
27899;SDS011;15243;50.726;7.080;2023-09-07T06:52:06;13.95;;;9.32;;
27899;SDS011;15243;50.726;7.080;2023-09-07T06:54:33;12.70;;;7.97;;
27899;SDS011;15243;50.726;7.080;2023-09-07T06:57:01;12.43;;;8.50;;
27899;SDS011;15243;50.726;7.080;2023-09-07T06:59:28;12.85;;;8.30;;
27899;SDS011;15243;50.726;7.080;2023-09-07T07:01:55;13.68;;;7.90;;
27899;SDS011;15243;50.726;7.080;2023-09-07T07:04:26;12.73;;;8.30;;
27899;SDS011;15243;50.726;7.080;2023-09-07T07:06:53;18.95;;;8.15;;
27899;SDS011;15243;50.726;7.080;2023-09-07T07:09:20;12.05;;;8.15;;
27899;SDS011;15243;50.726;7.080;2023-09-07T07:11:47;10.50;;;7.43;;
27899;SDS011;15243;50.726;7.080;2023-09-07T07:14:15;9.57;;;6.97;;
27899;SDS011;15243;50.726;7.080;2023-09-07T07:16:42;10.93;;;7.18;;
27899;SDS011;15243;50.726;7.080;2023-09-07T07:19:09;10.43;;;7.70;;
27899;SDS011;15243;50.726;7.080;2023-09-07T07:21:48;8.35;;;6.65;;
27899;SDS011;15243;50.726;7.080;2023-09-07T07:24:16;12.25;;;6.97;;
27899;SDS011;15243;50.726;7.080;2023-09-07T07:26:44;8.82;;;7.03;;
27899;SDS011;15243;50.726;7.080;2023-09-07T07:29:11;12.68;;;7.47;;
27899;SDS011;15243;50.726;7.080;2023-09-07T07:31:43;10.35;;;7.28;;
27899;SDS011;15243;50.726;7.080;2023-09-07T07:34:10;9.32;;;6.93;;
27899;SDS011;15243;50.726;7.080;2023-09-07T07:36:37;10.55;;;6.35;;
27899;SDS011;15243;50.726;7.080;2023-09-07T07:39:05;11.10;;;6.85;;
27899;SDS011;15243;50.726;7.080;2023-09-07T07:41:35;11.05;;;6.18;;
27899;SDS011;15243;50.726;7.080;2023-09-07T07:44:02;10.60;;;6.63;;
27899;SDS011;15243;50.726;7.080;2023-09-07T07:46:29;11.00;;;6.43;;
27899;SDS011;15243;50.726;7.080;2023-09-07T07:48:57;8.80;;;6.07;;
27899;SDS011;15243;50.726;7.080;2023-09-07T07:51:23;14.07;;;5.47;;
27899;SDS011;15243;50.726;7.080;2023-09-07T07:53:51;9.20;;;5.65;;
27899;SDS011;15243;50.726;7.080;2023-09-07T07:56:18;9.00;;;5.40;;
27899;SDS011;15243;50.726;7.080;2023-09-07T07:58:45;9.95;;;5.38;;
27899;SDS011;15243;50.726;7.080;2023-09-07T08:01:14;8.88;;;5.65;;
27899;SDS011;15243;50.726;7.080;2023-09-07T08:03:42;12.98;;;5.70;;
27899;SDS011;15243;50.726;7.080;2023-09-07T08:06:10;8.80;;;5.28;;
27899;SDS011;15243;50.726;7.080;2023-09-07T08:08:38;7.70;;;5.05;;
27899;SDS011;15243;50.726;7.080;2023-09-07T08:11:06;8.90;;;5.60;;
27899;SDS011;15243;50.726;7.080;2023-09-07T08:13:34;8.70;;;4.53;;
27899;SDS011;15243;50.726;7.080;2023-09-07T08:16:01;7.25;;;4.82;;
27899;SDS011;15243;50.726;7.080;2023-09-07T08:18:29;6.82;;;4.82;;
27899;SDS011;15243;50.726;7.080;2023-09-07T08:21:01;8.15;;;4.90;;
27899;SDS011;15243;50.726;7.080;2023-09-07T08:23:29;10.93;;;5.57;;
27899;SDS011;15243;50.726;7.080;2023-09-07T08:25:55;7.57;;;4.80;;
27899;SDS011;15243;50.726;7.080;2023-09-07T08:28:23;8.45;;;4.95;;
27899;SDS011;15243;50.726;7.080;2023-09-07T08:30:52;8.30;;;5.28;;
27899;SDS011;15243;50.726;7.080;2023-09-07T08:33:22;9.70;;;4.85;;
27899;SDS011;15243;50.726;7.080;2023-09-07T08:35:53;8.60;;;4.95;;
27899;SDS011;15243;50.726;7.080;2023-09-07T08:38:22;7.97;;;5.25;;
27899;SDS011;15243;50.726;7.080;2023-09-07T08:40:55;10.18;;;4.47;;
27899;SDS011;15243;50.726;7.080;2023-09-07T08:43:28;6.15;;;4.35;;
27899;SDS011;15243;50.726;7.080;2023-09-07T08:45:58;7.40;;;4.70;;
27899;SDS011;15243;50.726;7.080;2023-09-07T08:48:42;13.20;;;4.43;;
27899;SDS011;15243;50.726;7.080;2023-09-07T08:51:09;6.40;;;4.60;;
27899;SDS011;15243;50.726;7.080;2023-09-07T08:53:39;13.30;;;4.75;;
27899;SDS011;15243;50.726;7.080;2023-09-07T08:56:07;8.73;;;4.68;;
27899;SDS011;15243;50.726;7.080;2023-09-07T08:58:36;12.35;;;5.15;;
27899;SDS011;15243;50.726;7.080;2023-09-07T09:01:03;8.93;;;4.40;;
27899;SDS011;15243;50.726;7.080;2023-09-07T09:03:34;7.65;;;3.90;;
27899;SDS011;15243;50.726;7.080;2023-09-07T09:06:03;7.28;;;4.22;;
27899;SDS011;15243;50.726;7.080;2023-09-07T09:08:51;7.75;;;4.72;;
27899;SDS011;15243;50.726;7.080;2023-09-07T09:11:20;6.22;;;4.32;;
27899;SDS011;15243;50.726;7.080;2023-09-07T09:13:50;8.20;;;4.55;;
27899;SDS011;15243;50.726;7.080;2023-09-07T09:16:18;5.15;;;3.70;;
27899;SDS011;15243;50.726;7.080;2023-09-07T09:18:53;6.30;;;4.40;;
27899;SDS011;15243;50.726;7.080;2023-09-07T09:21:22;6.45;;;4.07;;
27899;SDS011;15243;50.726;7.080;2023-09-07T09:23:51;9.07;;;4.22;;
27899;SDS011;15243;50.726;7.080;2023-09-07T09:26:19;6.88;;;4.53;;
27899;SDS011;15243;50.726;7.080;2023-09-07T09:28:46;6.95;;;4.43;;
27899;SDS011;15243;50.726;7.080;2023-09-07T09:31:14;9.48;;;4.93;;
27899;SDS011;15243;50.726;7.080;2023-09-07T09:33:41;5.15;;;4.00;;
27899;SDS011;15243;50.726;7.080;2023-09-07T09:36:09;7.22;;;3.80;;
27899;SDS011;15243;50.726;7.080;2023-09-07T09:38:36;8.38;;;4.80;;
27899;SDS011;15243;50.726;7.080;2023-09-07T09:41:04;9.65;;;4.55;;
27899;SDS011;15243;50.726;7.080;2023-09-07T09:43:31;9.02;;;4.50;;
27899;SDS011;15243;50.726;7.080;2023-09-07T09:45:59;9.20;;;4.15;;
27899;SDS011;15243;50.726;7.080;2023-09-07T09:48:27;9.00;;;4.22;;
27899;SDS011;15243;50.726;7.080;2023-09-07T09:50:55;6.80;;;4.15;;
27899;SDS011;15243;50.726;7.080;2023-09-07T09:53:23;4.35;;;3.80;;
27899;SDS011;15243;50.726;7.080;2023-09-07T09:55:53;4.75;;;3.88;;
27899;SDS011;15243;50.726;7.080;2023-09-07T09:58:20;7.55;;;3.88;;
27899;SDS011;15243;50.726;7.080;2023-09-07T10:00:48;9.57;;;4.80;;
27899;SDS011;15243;50.726;7.080;2023-09-07T10:03:18;9.95;;;4.75;;
27899;SDS011;15243;50.726;7.080;2023-09-07T10:06:07;9.98;;;4.22;;
27899;SDS011;15243;50.726;7.080;2023-09-07T10:08:37;6.03;;;4.13;;
27899;SDS011;15243;50.726;7.080;2023-09-07T10:11:07;7.72;;;5.03;;
27899;SDS011;15243;50.726;7.080;2023-09-07T10:13:38;8.90;;;3.92;;
27899;SDS011;15243;50.726;7.080;2023-09-07T10:16:06;13.00;;;4.72;;
27899;SDS011;15243;50.726;7.080;2023-09-07T10:18:37;7.95;;;4.13;;
27899;SDS011;15243;50.726;7.080;2023-09-07T10:21:05;9.45;;;4.65;;
27899;SDS011;15243;50.726;7.080;2023-09-07T10:26:17;7.07;;;4.55;;
27899;SDS011;15243;50.726;7.080;2023-09-07T10:28:47;5.70;;;4.00;;
27899;SDS011;15243;50.726;7.080;2023-09-07T10:31:24;8.35;;;4.20;;
27899;SDS011;15243;50.726;7.080;2023-09-07T10:34:09;8.18;;;4.22;;
27899;SDS011;15243;50.726;7.080;2023-09-07T10:36:39;10.90;;;4.22;;
27899;SDS011;15243;50.726;7.080;2023-09-07T10:39:06;11.32;;;4.07;;
27899;SDS011;15243;50.726;7.080;2023-09-07T10:41:43;4.10;;;3.60;;
27899;SDS011;15243;50.726;7.080;2023-09-07T10:44:11;6.38;;;3.80;;
27899;SDS011;15243;50.726;7.080;2023-09-07T10:46:39;4.85;;;3.63;;
27899;SDS011;15243;50.726;7.080;2023-09-07T10:49:07;4.70;;;3.90;;
27899;SDS011;15243;50.726;7.080;2023-09-07T10:51:44;6.72;;;3.47;;
27899;SDS011;15243;50.726;7.080;2023-09-07T10:54:13;7.80;;;4.22;;
27899;SDS011;15243;50.726;7.080;2023-09-07T10:56:43;5.35;;;4.35;;
27899;SDS011;15243;50.726;7.080;2023-09-07T10:59:16;6.00;;;3.83;;
27899;SDS011;15243;50.726;7.080;2023-09-07T11:01:49;7.00;;;4.13;;
27899;SDS011;15243;50.726;7.080;2023-09-07T11:04:17;9.52;;;3.60;;
27899;SDS011;15243;50.726;7.080;2023-09-07T11:06:45;6.85;;;3.75;;
27899;SDS011;15243;50.726;7.080;2023-09-07T11:09:12;7.05;;;3.88;;
27899;SDS011;15243;50.726;7.080;2023-09-07T11:11:45;6.07;;;3.55;;
27899;SDS011;15243;50.726;7.080;2023-09-07T11:14:13;7.73;;;4.20;;
27899;SDS011;15243;50.726;7.080;2023-09-07T11:16:40;6.38;;;3.50;;
27899;SDS011;15243;50.726;7.080;2023-09-07T11:19:07;7.63;;;3.40;;
27899;SDS011;15243;50.726;7.080;2023-09-07T11:21:34;7.72;;;4.15;;
27899;SDS011;15243;50.726;7.080;2023-09-07T11:24:02;5.57;;;3.60;;
27899;SDS011;15243;50.726;7.080;2023-09-07T11:26:45;4.13;;;3.67;;
27899;SDS011;15243;50.726;7.080;2023-09-07T11:29:13;6.68;;;3.45;;
27899;SDS011;15243;50.726;7.080;2023-09-07T11:31:42;7.03;;;3.45;;
27899;SDS011;15243;50.726;7.080;2023-09-07T11:34:10;5.00;;;3.05;;
27899;SDS011;15243;50.726;7.080;2023-09-07T11:36:42;6.05;;;3.78;;
27899;SDS011;15243;50.726;7.080;2023-09-07T11:39:10;6.68;;;3.53;;
27899;SDS011;15243;50.726;7.080;2023-09-07T11:41:40;7.18;;;3.05;;
27899;SDS011;15243;50.726;7.080;2023-09-07T11:44:07;7.32;;;3.97;;
27899;SDS011;15243;50.726;7.080;2023-09-07T11:46:35;7.10;;;3.60;;
27899;SDS011;15243;50.726;7.080;2023-09-07T11:49:02;4.50;;;3.58;;
27899;SDS011;15243;50.726;7.080;2023-09-07T11:51:31;9.63;;;3.30;;
27899;SDS011;15243;50.726;7.080;2023-09-07T11:53:58;5.95;;;3.70;;
27899;SDS011;15243;50.726;7.080;2023-09-07T11:56:25;8.57;;;3.45;;
27899;SDS011;15243;50.726;7.080;2023-09-07T11:58:53;7.78;;;3.78;;
27899;SDS011;15243;50.726;7.080;2023-09-07T12:01:21;4.47;;;3.33;;
27899;SDS011;15243;50.726;7.080;2023-09-07T12:03:49;8.80;;;3.45;;
27899;SDS011;15243;50.726;7.080;2023-09-07T12:06:16;6.18;;;3.60;;
27899;SDS011;15243;50.726;7.080;2023-09-07T12:08:57;4.72;;;3.10;;
27899;SDS011;15243;50.726;7.080;2023-09-07T12:11:28;6.20;;;3.70;;
27899;SDS011;15243;50.726;7.080;2023-09-07T12:13:55;5.15;;;3.55;;
27899;SDS011;15243;50.726;7.080;2023-09-07T12:16:22;6.47;;;3.50;;
27899;SDS011;15243;50.726;7.080;2023-09-07T12:18:51;5.78;;;3.58;;
27899;SDS011;15243;50.726;7.080;2023-09-07T12:21:19;5.97;;;3.80;;
27899;SDS011;15243;50.726;7.080;2023-09-07T12:23:47;4.70;;;3.22;;
27899;SDS011;15243;50.726;7.080;2023-09-07T12:26:14;8.65;;;3.60;;
27899;SDS011;15243;50.726;7.080;2023-09-07T12:28:43;5.97;;;3.38;;
27899;SDS011;15243;50.726;7.080;2023-09-07T12:31:11;7.10;;;3.45;;
27899;SDS011;15243;50.726;7.080;2023-09-07T12:33:38;3.67;;;3.30;;
27899;SDS011;15243;50.726;7.080;2023-09-07T12:36:06;5.85;;;3.50;;
27899;SDS011;15243;50.726;7.080;2023-09-07T12:38:36;8.07;;;3.63;;
27899;SDS011;15243;50.726;7.080;2023-09-07T12:41:04;8.88;;;3.97;;
27899;SDS011;15243;50.726;7.080;2023-09-07T12:43:31;3.90;;;3.42;;
27899;SDS011;15243;50.726;7.080;2023-09-07T12:45:59;3.90;;;3.50;;
27899;SDS011;15243;50.726;7.080;2023-09-07T12:48:26;5.75;;;3.53;;
27899;SDS011;15243;50.726;7.080;2023-09-07T12:50:53;4.22;;;3.33;;
27899;SDS011;15243;50.726;7.080;2023-09-07T12:53:21;3.70;;;3.40;;
27899;SDS011;15243;50.726;7.080;2023-09-07T12:55:52;5.00;;;3.20;;
27899;SDS011;15243;50.726;7.080;2023-09-07T12:58:20;6.45;;;3.33;;
27899;SDS011;15243;50.726;7.080;2023-09-07T13:00:47;4.85;;;3.40;;
27899;SDS011;15243;50.726;7.080;2023-09-07T13:03:14;6.07;;;3.53;;
27899;SDS011;15243;50.726;7.080;2023-09-07T13:05:42;6.10;;;3.47;;
27899;SDS011;15243;50.726;7.080;2023-09-07T13:08:10;4.32;;;3.53;;
27899;SDS011;15243;50.726;7.080;2023-09-07T13:10:37;7.50;;;3.70;;
27899;SDS011;15243;50.726;7.080;2023-09-07T13:13:05;4.72;;;3.40;;
27899;SDS011;15243;50.726;7.080;2023-09-07T13:15:33;4.18;;;3.25;;
27899;SDS011;15243;50.726;7.080;2023-09-07T13:18:00;7.47;;;3.40;;
27899;SDS011;15243;50.726;7.080;2023-09-07T13:20:27;4.88;;;3.28;;
27899;SDS011;15243;50.726;7.080;2023-09-07T13:22:55;6.75;;;3.78;;
27899;SDS011;15243;50.726;7.080;2023-09-07T13:25:23;7.82;;;3.10;;
27899;SDS011;15243;50.726;7.080;2023-09-07T13:27:50;4.63;;;3.20;;
27899;SDS011;15243;50.726;7.080;2023-09-07T13:30:17;5.53;;;3.33;;
27899;SDS011;15243;50.726;7.080;2023-09-07T13:32:44;8.18;;;3.67;;
27899;SDS011;15243;50.726;7.080;2023-09-07T13:35:13;4.53;;;3.13;;
27899;SDS011;15243;50.726;7.080;2023-09-07T13:37:41;6.55;;;3.75;;
27899;SDS011;15243;50.726;7.080;2023-09-07T13:40:09;5.63;;;3.15;;
27899;SDS011;15243;50.726;7.080;2023-09-07T13:42:37;3.25;;;2.95;;
27899;SDS011;15243;50.726;7.080;2023-09-07T13:45:05;4.38;;;3.20;;
27899;SDS011;15243;50.726;7.080;2023-09-07T13:47:33;4.88;;;3.40;;
27899;SDS011;15243;50.726;7.080;2023-09-07T13:50:00;4.82;;;3.17;;
27899;SDS011;15243;50.726;7.080;2023-09-07T13:52:27;5.22;;;3.50;;
27899;SDS011;15243;50.726;7.080;2023-09-07T13:54:54;3.08;;;2.78;;
27899;SDS011;15243;50.726;7.080;2023-09-07T13:57:21;3.50;;;3.20;;
27899;SDS011;15243;50.726;7.080;2023-09-07T13:59:49;6.78;;;3.47;;
27899;SDS011;15243;50.726;7.080;2023-09-07T14:02:16;4.70;;;3.50;;
27899;SDS011;15243;50.726;7.080;2023-09-07T14:04:43;4.30;;;2.92;;
27899;SDS011;15243;50.726;7.080;2023-09-07T14:07:09;4.78;;;2.97;;
27899;SDS011;15243;50.726;7.080;2023-09-07T14:09:36;4.47;;;3.10;;
27899;SDS011;15243;50.726;7.080;2023-09-07T14:12:05;5.15;;;3.35;;
27899;SDS011;15243;50.726;7.080;2023-09-07T14:14:32;5.82;;;3.60;;
27899;SDS011;15243;50.726;7.080;2023-09-07T14:16:59;3.25;;;2.95;;
27899;SDS011;15243;50.726;7.080;2023-09-07T14:19:26;6.13;;;3.10;;
27899;SDS011;15243;50.726;7.080;2023-09-07T14:21:57;5.15;;;2.83;;
27899;SDS011;15243;50.726;7.080;2023-09-07T14:24:24;5.28;;;3.05;;
27899;SDS011;15243;50.726;7.080;2023-09-07T14:26:52;7.15;;;2.95;;
27899;SDS011;15243;50.726;7.080;2023-09-07T14:29:18;5.93;;;3.55;;
27899;SDS011;15243;50.726;7.080;2023-09-07T14:31:46;7.00;;;3.28;;
27899;SDS011;15243;50.726;7.080;2023-09-07T14:34:15;3.83;;;3.53;;
27899;SDS011;15243;50.726;7.080;2023-09-07T14:36:42;4.43;;;3.67;;
27899;SDS011;15243;50.726;7.080;2023-09-07T14:39:09;8.15;;;3.63;;
27899;SDS011;15243;50.726;7.080;2023-09-07T14:41:36;5.10;;;3.40;;
27899;SDS011;15243;50.726;7.080;2023-09-07T14:44:03;3.90;;;3.10;;
27899;SDS011;15243;50.726;7.080;2023-09-07T14:46:30;4.00;;;2.88;;